sensor_id;sensor_type;location;lat;lon;timestamp;pressure;altitude;pressure_sealevel;temperature;humidity
63691;BME280;49837;57.280;27.070;2023-11-21T00:00:32;100361.53;;;-8.9;100.0
63691;BME280;49837;57.280;27.070;2023-11-21T00:01:32;100359.5;;;-9.0;100.0
63691;BME280;49837;57.280;27.070;2023-11-21T00:02:32;100362.69;;;-9.12;100.0
63691;BME280;49837;57.280;27.070;2023-11-21T00:03:33;100361.75;;;-9.02;100.0
63691;BME280;49837;57.280;27.070;2023-11-21T00:04:33;100362.63;;;-8.93;100.0
63691;BME280;49837;57.280;27.070;2023-11-21T00:05:34;100365.2;;;-8.93;100.0
63691;BME280;49837;57.280;27.070;2023-11-21T00:06:34;100366.33;;;-8.82;100.0
63691;BME280;49837;57.280;27.070;2023-11-21T00:07:35;100366.33;;;-8.82;100.0
63691;BME280;49837;57.280;27.070;2023-11-21T00:08:36;100365.03;;;-8.72;100.0
63691;BME280;49837;57.280;27.070;2023-11-21T00:09:36;100367.22;;;-8.61;100.0
63691;BME280;49837;57.280;27.070;2023-11-21T00:10:36;100361.82;;;-8.64;100.0
63691;BME280;49837;57.280;27.070;2023-11-21T00:11:36;100367.44;;;-8.63;100.0
63691;BME280;49837;57.280;27.070;2023-11-21T00:12:37;100364.42;;;-8.62;100.0
63691;BME280;49837;57.280;27.070;2023-11-21T00:13:37;100364.16;;;-8.64;100.0
63691;BME280;49837;57.280;27.070;2023-11-21T00:14:38;100364.88;;;-8.75;100.0
63691;BME280;49837;57.280;27.070;2023-11-21T00:15:38;100363.73;;;-8.73;100.0
63691;BME280;49837;57.280;27.070;2023-11-21T00:16:39;100363.34;;;-8.69;100.0
63691;BME280;49837;57.280;27.070;2023-11-21T00:17:39;100371.72;;;-8.71;100.0
63691;BME280;49837;57.280;27.070;2023-11-21T00:18:39;100369.52;;;-8.78;100.0
63691;BME280;49837;57.280;27.070;2023-11-21T00:19:40;100367.12;;;-8.76;100.0
63691;BME280;49837;57.280;27.070;2023-11-21T00:20:40;100368.14;;;-8.7;100.0
63691;BME280;49837;57.280;27.070;2023-11-21T00:21:41;100365.98;;;-8.6;100.0
63691;BME280;49837;57.280;27.070;2023-11-21T00:22:41;100362.06;;;-8.67;100.0
63691;BME280;49837;57.280;27.070;2023-11-21T00:23:41;100362.34;;;-8.68;100.0
63691;BME280;49837;57.280;27.070;2023-11-21T00:24:42;100363.88;;;-8.67;100.0
63691;BME280;49837;57.280;27.070;2023-11-21T00:25:42;100361.97;;;-8.71;100.0
63691;BME280;49837;57.280;27.070;2023-11-21T00:26:43;100365.3;;;-8.64;100.0
63691;BME280;49837;57.280;27.070;2023-11-21T00:27:43;100369.0;;;-8.66;100.0
63691;BME280;49837;57.280;27.070;2023-11-21T00:28:43;100372.3;;;-8.7;100.0
63691;BME280;49837;57.280;27.070;2023-11-21T00:29:44;100368.32;;;-8.71;100.0
63691;BME280;49837;57.280;27.070;2023-11-21T00:30:44;100371.38;;;-8.72;100.0
63691;BME280;49837;57.280;27.070;2023-11-21T00:31:45;100367.87;;;-8.61;100.0
63691;BME280;49837;57.280;27.070;2023-11-21T00:32:45;100369.19;;;-8.72;100.0
63691;BME280;49837;57.280;27.070;2023-11-21T00:33:45;100369.59;;;-8.67;100.0
63691;BME280;49837;57.280;27.070;2023-11-21T00:34:46;100371.66;;;-8.7;100.0
63691;BME280;49837;57.280;27.070;2023-11-21T00:35:46;100368.36;;;-8.71;100.0
63691;BME280;49837;57.280;27.070;2023-11-21T00:36:47;100365.3;;;-8.64;100.0
63691;BME280;49837;57.280;27.070;2023-11-21T00:37:47;100369.59;;;-8.67;100.0
63691;BME280;49837;57.280;27.070;2023-11-21T00:38:47;100366.57;;;-8.69;100.0
63691;BME280;49837;57.280;27.070;2023-11-21T00:39:48;100362.35;;;-8.73;100.0
63691;BME280;49837;57.280;27.070;2023-11-21T00:40:48;100371.01;;;-8.73;100.0
63691;BME280;49837;57.280;27.070;2023-11-21T00:41:49;100370.02;;;-8.75;100.0
63691;BME280;49837;57.280;27.070;2023-11-21T00:42:49;100365.38;;;-8.83;100.0
63691;BME280;49837;57.280;27.070;2023-11-21T00:43:49;100365.91;;;-8.77;100.0
63691;BME280;49837;57.280;27.070;2023-11-21T00:44:50;100366.91;;;-8.77;100.0
63691;BME280;49837;57.280;27.070;2023-11-21T00:45:50;100365.7;;;-8.74;100.0
63691;BME280;49837;57.280;27.070;2023-11-21T00:46:51;100360.86;;;-8.62;100.0
63691;BME280;49837;57.280;27.070;2023-11-21T00:47:51;100359.87;;;-8.64;100.0
63691;BME280;49837;57.280;27.070;2023-11-21T00:48:51;100365.89;;;-8.68;100.0
63691;BME280;49837;57.280;27.070;2023-11-21T00:49:52;100364.75;;;-8.72;100.0
63691;BME280;49837;57.280;27.070;2023-11-21T00:50:52;100367.53;;;-8.72;100.0
63691;BME280;49837;57.280;27.070;2023-11-21T00:51:53;100365.8;;;-8.81;100.0
63691;BME280;49837;57.280;27.070;2023-11-21T00:52:53;100366.81;;;-8.82;100.0
63691;BME280;49837;57.280;27.070;2023-11-21T00:53:53;100367.65;;;-8.8;100.0
63691;BME280;49837;57.280;27.070;2023-11-21T00:54:54;100366.27;;;-8.74;100.0
63691;BME280;49837;57.280;27.070;2023-11-21T00:55:54;100369.56;;;-8.82;100.0
63691;BME280;49837;57.280;27.070;2023-11-21T00:56:54;100363.66;;;-8.85;100.0
63691;BME280;49837;57.280;27.070;2023-11-21T00:57:55;100361.62;;;-8.83;100.0
63691;BME280;49837;57.280;27.070;2023-11-21T00:58:55;100361.77;;;-8.81;100.0
63691;BME280;49837;57.280;27.070;2023-11-21T00:59:56;100364.14;;;-8.82;100.0
63691;BME280;49837;57.280;27.070;2023-11-21T01:00:56;100366.48;;;-8.86;100.0
63691;BME280;49837;57.280;27.070;2023-11-21T01:01:57;100364.09;;;-8.86;100.0
63691;BME280;49837;57.280;27.070;2023-11-21T01:02:57;100367.98;;;-8.85;100.0
63691;BME280;49837;57.280;27.070;2023-11-21T01:03:57;100366.31;;;-8.83;100.0
63691;BME280;49837;57.280;27.070;2023-11-21T01:04:58;100363.17;;;-8.82;100.0
63691;BME280;49837;57.280;27.070;2023-11-21T01:05:58;100365.16;;;-8.75;100.0
63691;BME280;49837;57.280;27.070;2023-11-21T01:06:59;100363.39;;;-8.81;100.0
63691;BME280;49837;57.280;27.070;2023-11-21T01:07:59;100363.92;;;-8.8;100.0
63691;BME280;49837;57.280;27.070;2023-11-21T01:08:59;100362.3;;;-8.74;100.0
63691;BME280;49837;57.280;27.070;2023-11-21T01:10:00;100360.0;;;-8.7;100.0
63691;BME280;49837;57.280;27.070;2023-11-21T01:11:00;100365.81;;;-8.65;100.0
63691;BME280;49837;57.280;27.070;2023-11-21T01:12:00;100372.91;;;-8.59;100.0
63691;BME280;49837;57.280;27.070;2023-11-21T01:13:01;100367.98;;;-8.55;100.0
63691;BME280;49837;57.280;27.070;2023-11-21T01:14:02;100369.0;;;-8.52;100.0
63691;BME280;49837;57.280;27.070;2023-11-21T01:15:02;100374.11;;;-8.39;100.0
63691;BME280;49837;57.280;27.070;2023-11-21T01:16:03;100376.91;;;-8.31;100.0
63691;BME280;49837;57.280;27.070;2023-11-21T01:17:03;100370.09;;;-8.3;100.0
63691;BME280;49837;57.280;27.070;2023-11-21T01:18:03;100374.61;;;-8.32;100.0
63691;BME280;49837;57.280;27.070;2023-11-21T01:19:04;100370.2;;;-8.35;100.0
63691;BME280;49837;57.280;27.070;2023-11-21T01:20:04;100369.9;;;-8.44;100.0
63691;BME280;49837;57.280;27.070;2023-11-21T01:21:05;100374.07;;;-8.5;100.0
63691;BME280;49837;57.280;27.070;2023-11-21T01:22:05;100377.25;;;-8.48;100.0
63691;BME280;49837;57.280;27.070;2023-11-21T01:23:05;100377.42;;;-8.51;100.0
63691;BME280;49837;57.280;27.070;2023-11-21T01:24:06;100380.98;;;-8.57;100.0
63691;BME280;49837;57.280;27.070;2023-11-21T01:25:06;100382.53;;;-8.67;100.0
63691;BME280;49837;57.280;27.070;2023-11-21T01:26:06;100382.02;;;-8.82;100.0
63691;BME280;49837;57.280;27.070;2023-11-21T01:27:07;100385.67;;;-8.83;100.0
63691;BME280;49837;57.280;27.070;2023-11-21T01:28:08;100387.5;;;-8.79;100.0
63691;BME280;49837;57.280;27.070;2023-11-21T01:29:07;100385.57;;;-8.75;100.0
63691;BME280;49837;57.280;27.070;2023-11-21T01:30:08;100389.09;;;-8.78;100.0
63691;BME280;49837;57.280;27.070;2023-11-21T01:31:08;100389.88;;;-8.67;100.0
63691;BME280;49837;57.280;27.070;2023-11-21T01:32:09;100387.66;;;-8.63;100.0
63691;BME280;49837;57.280;27.070;2023-11-21T01:33:09;100391.39;;;-8.63;100.0
63691;BME280;49837;57.280;27.070;2023-11-21T01:34:09;100391.52;;;-8.59;100.0
63691;BME280;49837;57.280;27.070;2023-11-21T01:35:10;100389.81;;;-8.56;100.0
63691;BME280;49837;57.280;27.070;2023-11-21T01:36:10;100394.27;;;-8.49;100.0
63691;BME280;49837;57.280;27.070;2023-11-21T01:37:10;100390.25;;;-8.53;100.0
63691;BME280;49837;57.280;27.070;2023-11-21T01:38:11;100392.86;;;-8.51;100.0
63691;BME280;49837;57.280;27.070;2023-11-21T01:39:11;100387.78;;;-8.49;100.0
63691;BME280;49837;57.280;27.070;2023-11-21T01:40:12;100391.6;;;-8.42;100.0
63691;BME280;49837;57.280;27.070;2023-11-21T01:41:12;100386.67;;;-8.47;100.0
63691;BME280;49837;57.280;27.070;2023-11-21T01:42:12;100390.86;;;-8.47;100.0
63691;BME280;49837;57.280;27.070;2023-11-21T01:43:13;100389.17;;;-8.42;100.0
63691;BME280;49837;57.280;27.070;2023-11-21T01:44:13;100385.69;;;-8.49;100.0
63691;BME280;49837;57.280;27.070;2023-11-21T01:45:14;100383.89;;;-8.41;100.0
63691;BME280;49837;57.280;27.070;2023-11-21T01:46:14;100386.86;;;-8.52;100.0
63691;BME280;49837;57.280;27.070;2023-11-21T01:47:14;100383.84;;;-8.52;100.0
63691;BME280;49837;57.280;27.070;2023-11-21T01:48:15;100383.3;;;-8.52;100.0
63691;BME280;49837;57.280;27.070;2023-11-21T01:49:15;100387.11;;;-8.48;100.0
63691;BME280;49837;57.280;27.070;2023-11-21T01:50:16;100386.8;;;-8.67;100.0
63691;BME280;49837;57.280;27.070;2023-11-21T01:51:16;100384.22;;;-8.74;100.0
63691;BME280;49837;57.280;27.070;2023-11-21T01:52:16;100387.71;;;-8.66;100.0
63691;BME280;49837;57.280;27.070;2023-11-21T01:53:17;100383.93;;;-8.54;100.0
63691;BME280;49837;57.280;27.070;2023-11-21T01:54:19;100384.94;;;-8.48;100.0
63691;BME280;49837;57.280;27.070;2023-11-21T01:55:18;100385.45;;;-8.45;100.0
63691;BME280;49837;57.280;27.070;2023-11-21T01:56:19;100389.02;;;-8.42;100.0
63691;BME280;49837;57.280;27.070;2023-11-21T01:57:20;100382.19;;;-8.34;100.0
63691;BME280;49837;57.280;27.070;2023-11-21T01:58:21;100382.55;;;-8.42;100.0
63691;BME280;49837;57.280;27.070;2023-11-21T01:59:21;100382.98;;;-8.43;100.0
63691;BME280;49837;57.280;27.070;2023-11-21T02:00:21;100385.54;;;-8.47;100.0
63691;BME280;49837;57.280;27.070;2023-11-21T02:01:21;100384.83;;;-8.5;100.0
63691;BME280;49837;57.280;27.070;2023-11-21T02:02:22;100385.81;;;-8.46;100.0
63691;BME280;49837;57.280;27.070;2023-11-21T02:03:22;100390.37;;;-8.37;100.0
63691;BME280;49837;57.280;27.070;2023-11-21T02:04:22;100389.8;;;-8.44;100.0
63691;BME280;49837;57.280;27.070;2023-11-21T02:05:23;100389.12;;;-8.43;100.0
63691;BME280;49837;57.280;27.070;2023-11-21T02:06:23;100386.89;;;-8.4;100.0
63691;BME280;49837;57.280;27.070;2023-11-21T02:07:24;100387.45;;;-8.44;100.0
63691;BME280;49837;57.280;27.070;2023-11-21T02:08:24;100388.56;;;-8.52;100.0
63691;BME280;49837;57.280;27.070;2023-11-21T02:09:27;100390.78;;;-8.53;100.0
63691;BME280;49837;57.280;27.070;2023-11-21T02:10:25;100388.28;;;-8.52;100.0
63691;BME280;49837;57.280;27.070;2023-11-21T02:11:25;100392.05;;;-8.54;100.0
63691;BME280;49837;57.280;27.070;2023-11-21T02:12:25;100389.4;;;-8.53;100.0
63691;BME280;49837;57.280;27.070;2023-11-21T02:13:26;100391.76;;;-8.59;100.0
63691;BME280;49837;57.280;27.070;2023-11-21T02:14:26;100392.94;;;-8.58;100.0
63691;BME280;49837;57.280;27.070;2023-11-21T02:15:27;100393.09;;;-8.52;100.0
63691;BME280;49837;57.280;27.070;2023-11-21T02:16:27;100391.46;;;-8.63;100.0
63691;BME280;49837;57.280;27.070;2023-11-21T02:17:27;100399.06;;;-8.66;100.0
63691;BME280;49837;57.280;27.070;2023-11-21T02:18:28;100395.69;;;-8.61;100.0
63691;BME280;49837;57.280;27.070;2023-11-21T02:19:28;100398.19;;;-8.59;100.0
63691;BME280;49837;57.280;27.070;2023-11-21T02:20:29;100404.39;;;-8.58;100.0
63691;BME280;49837;57.280;27.070;2023-11-21T02:21:30;100408.14;;;-8.55;100.0
63691;BME280;49837;57.280;27.070;2023-11-21T02:22:31;100407.78;;;-8.55;100.0
63691;BME280;49837;57.280;27.070;2023-11-21T02:23:32;100408.8;;;-8.46;100.0
63691;BME280;49837;57.280;27.070;2023-11-21T02:24:32;100407.03;;;-8.34;100.0
63691;BME280;49837;57.280;27.070;2023-11-21T02:25:33;100407.78;;;-8.31;100.0
63691;BME280;49837;57.280;27.070;2023-11-21T02:26:33;100405.58;;;-8.33;100.0
63691;BME280;49837;57.280;27.070;2023-11-21T02:27:33;100402.88;;;-8.4;100.0
63691;BME280;49837;57.280;27.070;2023-11-21T02:28:34;100404.59;;;-8.38;100.0
63691;BME280;49837;57.280;27.070;2023-11-21T02:29:34;100402.76;;;-8.36;100.0
63691;BME280;49837;57.280;27.070;2023-11-21T02:30:34;100408.82;;;-8.36;100.0
63691;BME280;49837;57.280;27.070;2023-11-21T02:31:35;100409.88;;;-8.39;100.0
63691;BME280;49837;57.280;27.070;2023-11-21T02:32:35;100412.38;;;-8.36;100.0
63691;BME280;49837;57.280;27.070;2023-11-21T02:33:39;100413.98;;;-8.38;100.0
63691;BME280;49837;57.280;27.070;2023-11-21T02:34:40;100414.23;;;-8.44;100.0
63691;BME280;49837;57.280;27.070;2023-11-21T02:35:40;100411.94;;;-8.46;100.0
63691;BME280;49837;57.280;27.070;2023-11-21T02:36:40;100410.16;;;-8.43;100.0
63691;BME280;49837;57.280;27.070;2023-11-21T02:37:41;100411.1;;;-8.38;100.0
63691;BME280;49837;57.280;27.070;2023-11-21T02:38:41;100412.06;;;-8.42;100.0
63691;BME280;49837;57.280;27.070;2023-11-21T02:39:42;100416.31;;;-8.48;100.0
63691;BME280;49837;57.280;27.070;2023-11-21T02:40:43;100415.66;;;-8.46;100.0
63691;BME280;49837;57.280;27.070;2023-11-21T02:41:43;100410.27;;;-8.47;100.0
63691;BME280;49837;57.280;27.070;2023-11-21T02:42:46;100413.48;;;-8.46;100.0
63691;BME280;49837;57.280;27.070;2023-11-21T02:43:43;100412.83;;;-8.39;100.0
63691;BME280;49837;57.280;27.070;2023-11-21T02:44:44;100413.16;;;-8.34;100.0
63691;BME280;49837;57.280;27.070;2023-11-21T02:45:44;100416.52;;;-8.31;100.0
63691;BME280;49837;57.280;27.070;2023-11-21T02:46:45;100414.75;;;-8.3;100.0
63691;BME280;49837;57.280;27.070;2023-11-21T02:47:45;100414.96;;;-8.26;100.0
63691;BME280;49837;57.280;27.070;2023-11-21T02:48:45;100415.47;;;-8.24;100.0
63691;BME280;49837;57.280;27.070;2023-11-21T02:49:46;100418.2;;;-8.26;100.0
63691;BME280;49837;57.280;27.070;2023-11-21T02:50:46;100416.54;;;-8.33;100.0
63691;BME280;49837;57.280;27.070;2023-11-21T02:51:47;100418.94;;;-8.36;100.0
63691;BME280;49837;57.280;27.070;2023-11-21T02:52:47;100416.98;;;-8.37;100.0
63691;BME280;49837;57.280;27.070;2023-11-21T02:53:47;100415.12;;;-8.44;100.0
63691;BME280;49837;57.280;27.070;2023-11-21T02:54:48;100417.67;;;-8.56;100.0
63691;BME280;49837;57.280;27.070;2023-11-21T02:55:48;100418.16;;;-8.66;100.0
63691;BME280;49837;57.280;27.070;2023-11-21T02:56:49;100422.8;;;-8.61;100.0
63691;BME280;49837;57.280;27.070;2023-11-21T02:57:49;100419.25;;;-8.56;100.0
63691;BME280;49837;57.280;27.070;2023-11-21T02:58:49;100417.82;;;-8.47;100.0
63691;BME280;49837;57.280;27.070;2023-11-21T02:59:50;100418.52;;;-8.47;100.0
63691;BME280;49837;57.280;27.070;2023-11-21T03:00:50;100417.69;;;-8.46;100.0
63691;BME280;49837;57.280;27.070;2023-11-21T03:01:50;100413.12;;;-8.45;100.0
63691;BME280;49837;57.280;27.070;2023-11-21T03:02:51;100419.56;;;-8.41;100.0
63691;BME280;49837;57.280;27.070;2023-11-21T03:03:52;100420.27;;;-8.4;100.0
63691;BME280;49837;57.280;27.070;2023-11-21T03:04:52;100420.3;;;-8.41;100.0
63691;BME280;49837;57.280;27.070;2023-11-21T03:05:52;100419.17;;;-8.44;100.0
63691;BME280;49837;57.280;27.070;2023-11-21T03:06:52;100422.8;;;-8.37;100.0
63691;BME280;49837;57.280;27.070;2023-11-21T03:07:53;100417.67;;;-8.4;100.0
63691;BME280;49837;57.280;27.070;2023-11-21T03:08:53;100415.91;;;-8.38;100.0
63691;BME280;49837;57.280;27.070;2023-11-21T03:09:53;100418.84;;;-8.33;100.0
63691;BME280;49837;57.280;27.070;2023-11-21T03:10:54;100414.58;;;-8.32;100.0
63691;BME280;49837;57.280;27.070;2023-11-21T03:11:54;100420.95;;;-8.29;100.0
63691;BME280;49837;57.280;27.070;2023-11-21T03:12:54;100420.8;;;-8.25;100.0
63691;BME280;49837;57.280;27.070;2023-11-21T03:13:55;100423.83;;;-8.22;100.0
63691;BME280;49837;57.280;27.070;2023-11-21T03:14:55;100428.2;;;-8.22;100.0
63691;BME280;49837;57.280;27.070;2023-11-21T03:15:56;100424.78;;;-8.23;100.0
63691;BME280;49837;57.280;27.070;2023-11-21T03:16:56;100423.89;;;-8.27;100.0
63691;BME280;49837;57.280;27.070;2023-11-21T03:17:56;100421.62;;;-8.24;100.0
63691;BME280;49837;57.280;27.070;2023-11-21T03:18:57;100425.44;;;-8.22;100.0
63691;BME280;49837;57.280;27.070;2023-11-21T03:19:57;100424.75;;;-8.26;100.0
63691;BME280;49837;57.280;27.070;2023-11-21T03:20:57;100439.97;;;-8.29;100.0
63691;BME280;49837;57.280;27.070;2023-11-21T03:21:58;100453.25;;;-8.39;100.0
63691;BME280;49837;57.280;27.070;2023-11-21T03:22:58;100460.03;;;-8.45;100.0
63691;BME280;49837;57.280;27.070;2023-11-21T03:23:59;100461.1;;;-8.45;100.0
63691;BME280;49837;57.280;27.070;2023-11-21T03:24:59;100463.66;;;-8.53;100.0
63691;BME280;49837;57.280;27.070;2023-11-21T03:25:59;100464.29;;;-8.57;100.0
63691;BME280;49837;57.280;27.070;2023-11-21T03:27:00;100458.27;;;-8.6;100.0
63691;BME280;49837;57.280;27.070;2023-11-21T03:28:00;100462.31;;;-8.53;100.0
63691;BME280;49837;57.280;27.070;2023-11-21T03:29:01;100457.62;;;-8.53;100.0
63691;BME280;49837;57.280;27.070;2023-11-21T03:30:01;100464.04;;;-8.46;100.0
63691;BME280;49837;57.280;27.070;2023-11-21T03:31:01;100469.81;;;-8.47;100.0
63691;BME280;49837;57.280;27.070;2023-11-21T03:32:02;100465.23;;;-8.53;100.0
63691;BME280;49837;57.280;27.070;2023-11-21T03:33:02;100466.11;;;-8.57;100.0
63691;BME280;49837;57.280;27.070;2023-11-21T03:34:02;100459.75;;;-8.55;100.0
63691;BME280;49837;57.280;27.070;2023-11-21T03:35:03;100462.77;;;-8.41;100.0
63691;BME280;49837;57.280;27.070;2023-11-21T03:36:04;100464.98;;;-8.38;100.0
63691;BME280;49837;57.280;27.070;2023-11-21T03:37:03;100464.16;;;-8.37;100.0
63691;BME280;49837;57.280;27.070;2023-11-21T03:38:04;100464.73;;;-8.47;100.0
63691;BME280;49837;57.280;27.070;2023-11-21T03:39:04;100460.31;;;-8.52;100.0
63691;BME280;49837;57.280;27.070;2023-11-21T03:40:06;100458.93;;;-8.61;100.0
63691;BME280;49837;57.280;27.070;2023-11-21T03:41:05;100461.68;;;-8.61;100.0
63691;BME280;49837;57.280;27.070;2023-11-21T03:42:05;100456.55;;;-8.52;100.0
63691;BME280;49837;57.280;27.070;2023-11-21T03:43:06;100464.72;;;-8.49;100.0
63691;BME280;49837;57.280;27.070;2023-11-21T03:44:06;100466.56;;;-8.5;100.0
63691;BME280;49837;57.280;27.070;2023-11-21T03:45:07;100464.91;;;-8.53;100.0
63691;BME280;49837;57.280;27.070;2023-11-21T03:46:07;100460.91;;;-8.56;100.0
63691;BME280;49837;57.280;27.070;2023-11-21T03:47:07;100469.69;;;-8.55;100.0
63691;BME280;49837;57.280;27.070;2023-11-21T03:48:08;100466.9;;;-8.52;100.0
63691;BME280;49837;57.280;27.070;2023-11-21T03:49:08;100473.77;;;-8.59;100.0
63691;BME280;49837;57.280;27.070;2023-11-21T03:50:09;100478.83;;;-8.61;100.0
63691;BME280;49837;57.280;27.070;2023-11-21T03:51:09;100472.64;;;-8.59;100.0
63691;BME280;49837;57.280;27.070;2023-11-21T03:52:09;100462.86;;;-8.6;100.0
63691;BME280;49837;57.280;27.070;2023-11-21T03:53:09;100466.08;;;-8.59;100.0
63691;BME280;49837;57.280;27.070;2023-11-21T03:54:10;100472.98;;;-8.57;100.0
63691;BME280;49837;57.280;27.070;2023-11-21T03:55:10;100471.72;;;-8.58;100.0
63691;BME280;49837;57.280;27.070;2023-11-21T03:56:11;100473.41;;;-8.61;100.0
63691;BME280;49837;57.280;27.070;2023-11-21T03:57:11;100468.11;;;-8.59;100.0
63691;BME280;49837;57.280;27.070;2023-11-21T03:58:11;100464.76;;;-8.43;100.0
63691;BME280;49837;57.280;27.070;2023-11-21T03:59:12;100461.5;;;-8.39;100.0
63691;BME280;49837;57.280;27.070;2023-11-21T04:00:13;100461.81;;;-8.39;100.0
63691;BME280;49837;57.280;27.070;2023-11-21T04:01:19;100462.73;;;-8.43;100.0
63691;BME280;49837;57.280;27.070;2023-11-21T04:02:17;100462.84;;;-8.5;100.0
63691;BME280;49837;57.280;27.070;2023-11-21T04:03:17;100466.61;;;-8.53;100.0
63691;BME280;49837;57.280;27.070;2023-11-21T04:04:17;100462.23;;;-8.5;100.0
63691;BME280;49837;57.280;27.070;2023-11-21T04:05:19;100461.72;;;-8.47;100.0
63691;BME280;49837;57.280;27.070;2023-11-21T04:06:18;100458.41;;;-8.4;100.0
63691;BME280;49837;57.280;27.070;2023-11-21T04:07:18;100458.89;;;-8.49;100.0
63691;BME280;49837;57.280;27.070;2023-11-21T04:08:19;100462.72;;;-8.53;100.0
63691;BME280;49837;57.280;27.070;2023-11-21T04:09:19;100458.3;;;-8.46;100.0
63691;BME280;49837;57.280;27.070;2023-11-21T04:10:19;100461.2;;;-8.4;100.0
63691;BME280;49837;57.280;27.070;2023-11-21T04:11:20;100460.97;;;-8.51;100.0
63691;BME280;49837;57.280;27.070;2023-11-21T04:12:20;100457.44;;;-8.52;100.0
63691;BME280;49837;57.280;27.070;2023-11-21T04:13:21;100460.63;;;-8.46;100.0
63691;BME280;49837;57.280;27.070;2023-11-21T04:14:22;100464.48;;;-8.42;100.0
63691;BME280;49837;57.280;27.070;2023-11-21T04:15:22;100463.41;;;-8.44;100.0
63691;BME280;49837;57.280;27.070;2023-11-21T04:16:22;100461.97;;;-8.39;100.0
63691;BME280;49837;57.280;27.070;2023-11-21T04:17:22;100464.38;;;-8.35;100.0
63691;BME280;49837;57.280;27.070;2023-11-21T04:18:22;100469.59;;;-8.36;100.0
63691;BME280;49837;57.280;27.070;2023-11-21T04:19:23;100468.78;;;-8.39;100.0
63691;BME280;49837;57.280;27.070;2023-11-21T04:20:24;100467.43;;;-8.37;100.0
63691;BME280;49837;57.280;27.070;2023-11-21T04:21:24;100463.98;;;-8.37;100.0
63691;BME280;49837;57.280;27.070;2023-11-21T04:22:24;100468.27;;;-8.38;100.0
63691;BME280;49837;57.280;27.070;2023-11-21T04:23:24;100465.14;;;-8.32;100.0
63691;BME280;49837;57.280;27.070;2023-11-21T04:24:25;100460.83;;;-8.34;100.0
63691;BME280;49837;57.280;27.070;2023-11-21T04:25:25;100462.91;;;-8.33;100.0
63691;BME280;49837;57.280;27.070;2023-11-21T04:26:25;100466.59;;;-8.32;100.0
63691;BME280;49837;57.280;27.070;2023-11-21T04:27:26;100469.06;;;-8.29;100.0
63691;BME280;49837;57.280;27.070;2023-11-21T04:28:26;100464.84;;;-8.3;100.0
63691;BME280;49837;57.280;27.070;2023-11-21T04:29:27;100460.05;;;-8.32;100.0
63691;BME280;49837;57.280;27.070;2023-11-21T04:30:27;100460.47;;;-8.3;100.0
63691;BME280;49837;57.280;27.070;2023-11-21T04:31:27;100465.28;;;-8.28;100.0
63691;BME280;49837;57.280;27.070;2023-11-21T04:32:28;100463.06;;;-8.24;100.0
63691;BME280;49837;57.280;27.070;2023-11-21T04:33:28;100467.45;;;-8.28;100.0
63691;BME280;49837;57.280;27.070;2023-11-21T04:34:28;100470.17;;;-8.27;100.0
63691;BME280;49837;57.280;27.070;2023-11-21T04:35:29;100468.11;;;-8.21;100.0
63691;BME280;49837;57.280;27.070;2023-11-21T04:36:29;100474.3;;;-8.14;100.0
63691;BME280;49837;57.280;27.070;2023-11-21T04:37:30;100481.12;;;-8.25;100.0
63691;BME280;49837;57.280;27.070;2023-11-21T04:38:30;100485.91;;;-8.28;100.0
63691;BME280;49837;57.280;27.070;2023-11-21T04:39:30;100485.39;;;-8.27;100.0
63691;BME280;49837;57.280;27.070;2023-11-21T04:40:31;100482.67;;;-8.47;100.0
63691;BME280;49837;57.280;27.070;2023-11-21T04:41:31;100484.02;;;-8.52;100.0
63691;BME280;49837;57.280;27.070;2023-11-21T04:42:35;100485.47;;;-8.48;100.0
63691;BME280;49837;57.280;27.070;2023-11-21T04:43:32;100484.41;;;-8.58;100.0
63691;BME280;49837;57.280;27.070;2023-11-21T04:44:33;100489.73;;;-8.57;100.0
63691;BME280;49837;57.280;27.070;2023-11-21T04:45:33;100493.12;;;-8.47;100.0
63691;BME280;49837;57.280;27.070;2023-11-21T04:46:33;100489.91;;;-8.53;100.0
63691;BME280;49837;57.280;27.070;2023-11-21T04:47:34;100486.23;;;-8.58;100.0
63691;BME280;49837;57.280;27.070;2023-11-21T04:48:34;100480.78;;;-8.58;100.0
63691;BME280;49837;57.280;27.070;2023-11-21T04:49:34;100484.75;;;-8.54;100.0
63691;BME280;49837;57.280;27.070;2023-11-21T04:50:35;100486.72;;;-8.52;100.0
63691;BME280;49837;57.280;27.070;2023-11-21T04:51:35;100490.66;;;-8.51;100.0
63691;BME280;49837;57.280;27.070;2023-11-21T04:52:36;100494.2;;;-8.58;100.0
63691;BME280;49837;57.280;27.070;2023-11-21T04:53:36;100488.55;;;-8.61;100.0
63691;BME280;49837;57.280;27.070;2023-11-21T04:54:36;100483.05;;;-8.55;100.0
63691;BME280;49837;57.280;27.070;2023-11-21T04:55:37;100485.04;;;-8.51;100.0
63691;BME280;49837;57.280;27.070;2023-11-21T04:56:37;100489.77;;;-8.48;100.0
63691;BME280;49837;57.280;27.070;2023-11-21T04:57:37;100488.55;;;-8.46;100.0
63691;BME280;49837;57.280;27.070;2023-11-21T04:58:39;100486.4;;;-8.44;100.0
63691;BME280;49837;57.280;27.070;2023-11-21T04:59:38;100493.53;;;-8.39;100.0
63691;BME280;49837;57.280;27.070;2023-11-21T05:00:39;100492.69;;;-8.36;100.0
63691;BME280;49837;57.280;27.070;2023-11-21T05:01:39;100490.36;;;-8.31;100.0
63691;BME280;49837;57.280;27.070;2023-11-21T05:02:42;100485.52;;;-8.33;100.0
63691;BME280;49837;57.280;27.070;2023-11-21T05:03:41;100483.75;;;-8.26;100.0
63691;BME280;49837;57.280;27.070;2023-11-21T05:04:40;100477.44;;;-8.42;100.0
63691;BME280;49837;57.280;27.070;2023-11-21T05:05:40;100479.33;;;-8.46;100.0
63691;BME280;49837;57.280;27.070;2023-11-21T05:06:41;100486.12;;;-8.43;100.0
63691;BME280;49837;57.280;27.070;2023-11-21T05:07:41;100485.23;;;-8.33;100.0
63691;BME280;49837;57.280;27.070;2023-11-21T05:08:42;100484.66;;;-8.31;100.0
63691;BME280;49837;57.280;27.070;2023-11-21T05:09:43;100478.45;;;-8.29;100.0
63691;BME280;49837;57.280;27.070;2023-11-21T05:10:43;100477.24;;;-8.28;100.0
63691;BME280;49837;57.280;27.070;2023-11-21T05:11:43;100481.55;;;-8.23;100.0
63691;BME280;49837;57.280;27.070;2023-11-21T05:12:43;100483.75;;;-8.22;100.0